createdAt,value
2022-08-23T00:02:27.276Z,14.45
2022-08-23T00:05:08.817Z,17.02
2022-08-23T00:07:43.618Z,16.40
2022-08-23T00:10:14.107Z,13.82
2022-08-23T00:12:42.756Z,13.63
2022-08-23T00:15:12.909Z,14.57
2022-08-23T00:17:42.222Z,15.20
2022-08-23T00:20:14.377Z,18.00
2022-08-23T00:22:41.789Z,14.02
2022-08-23T00:25:12.070Z,13.77
2022-08-23T00:27:39.511Z,16.27
2022-08-23T00:30:09.151Z,15.07
2022-08-23T00:32:38.174Z,21.23
2022-08-23T00:35:07.054Z,18.00
2022-08-23T00:37:34.870Z,14.63
2022-08-23T00:40:02.432Z,16.48
2022-08-23T00:43:03.480Z,19.77
2022-08-23T00:46:00.517Z,15.20
2022-08-23T00:48:28.035Z,15.55
2022-08-23T00:50:59.996Z,20.15
2022-08-23T00:53:31.654Z,16.20
2022-08-23T00:56:03.300Z,17.30
2022-08-23T00:58:30.858Z,19.83
2022-08-23T01:01:01.006Z,18.25
2022-08-23T01:03:38.487Z,14.30
2022-08-23T01:06:32.553Z,17.38
2022-08-23T01:09:07.850Z,20.00
2022-08-23T01:11:41.831Z,24.70
2022-08-23T01:14:17.132Z,15.35
2022-08-23T01:17:00.806Z,15.55
2022-08-23T01:19:38.808Z,19.95
2022-08-23T01:22:12.195Z,18.52
2022-08-23T01:25:08.390Z,19.77
2022-08-23T01:27:29.906Z,16.88
2022-08-23T01:29:59.449Z,20.15
2022-08-23T01:32:27.406Z,17.73
2022-08-23T01:34:54.823Z,18.45
2022-08-23T01:37:22.169Z,21.85
2022-08-23T01:39:50.846Z,23.02
2022-08-23T01:42:18.423Z,18.42
2022-08-23T01:44:45.927Z,23.83
2022-08-23T01:47:13.109Z,16.58
2022-08-23T01:49:40.536Z,18.83
2022-08-23T01:52:07.822Z,20.10
2022-08-23T01:54:35.200Z,19.58
2022-08-23T01:57:02.610Z,20.88
2022-08-23T01:59:30.003Z,29.98
2022-08-23T02:01:58.549Z,18.50
2022-08-23T02:04:25.939Z,17.35
2022-08-23T02:09:25.721Z,20.58
2022-08-23T02:11:56.945Z,20.30
2022-08-23T02:14:24.567Z,15.10
2022-08-23T02:17:04.277Z,18.75
2022-08-23T02:19:34.576Z,19.23
2022-08-23T02:22:04.194Z,21.23
2022-08-23T02:24:31.997Z,16.25
2022-08-23T02:29:30.491Z,16.33
2022-08-23T02:32:01.657Z,13.52
2022-08-23T02:37:14.614Z,16.65
2022-08-23T02:39:42.682Z,20.58
2022-08-23T02:42:11.865Z,14.48
2022-08-23T02:44:42.912Z,18.83
2022-08-23T02:47:12.024Z,12.77
2022-08-23T02:49:42.873Z,14.75
2022-08-23T02:52:10.252Z,15.45
2022-08-23T02:54:38.134Z,16.73
2022-08-23T02:57:06.339Z,15.77
2022-08-23T02:59:34.630Z,15.90
2022-08-23T03:02:02.102Z,15.45
2022-08-23T03:04:34.808Z,15.85
2022-08-23T03:07:02.107Z,16.20
2022-08-23T03:09:29.517Z,15.95
2022-08-23T03:11:56.819Z,14.02
2022-08-23T03:14:25.350Z,14.93
2022-08-23T03:16:52.697Z,14.40
2022-08-23T03:19:21.964Z,14.40
2022-08-23T03:21:49.266Z,16.38
2022-08-23T03:24:19.268Z,20.88
2022-08-23T03:26:46.684Z,14.45
2022-08-23T03:29:16.856Z,15.63
2022-08-23T03:31:59.299Z,15.82
2022-08-23T03:34:27.227Z,12.60
2022-08-23T03:36:56.319Z,15.75
2022-08-23T03:39:23.842Z,14.60
2022-08-23T03:41:52.157Z,11.80
2022-08-23T03:44:19.822Z,16.00
2022-08-23T03:46:48.323Z,13.23
2022-08-23T03:49:15.537Z,13.23
2022-08-23T03:51:52.329Z,13.80
2022-08-23T03:54:20.709Z,14.38
2022-08-23T03:57:00.467Z,14.18
2022-08-23T03:59:32.604Z,16.15
2022-08-23T04:02:01.221Z,14.77
2022-08-23T04:04:30.304Z,14.05
2022-08-23T04:07:21.889Z,13.95
2022-08-23T04:09:55.275Z,14.27
2022-08-23T04:12:25.712Z,12.32
2022-08-23T04:14:53.776Z,14.40
2022-08-23T04:17:22.609Z,14.68
2022-08-23T04:19:51.325Z,17.05
2022-08-23T04:22:20.214Z,15.20
2022-08-23T04:24:48.362Z,17.88
2022-08-23T04:27:17.039Z,16.25
2022-08-23T04:29:45.801Z,18.20
2022-08-23T04:32:14.771Z,15.50
2022-08-23T04:34:55.381Z,16.95
2022-08-23T04:37:23.377Z,15.30
2022-08-23T04:40:10.144Z,16.35
2022-08-23T04:42:43.156Z,19.27
2022-08-23T04:45:12.473Z,16.88
2022-08-23T04:47:44.878Z,16.67
2022-08-23T04:50:12.556Z,14.90
2022-08-23T04:52:59.940Z,21.67
2022-08-23T04:55:29.757Z,19.55
2022-08-23T04:58:07.829Z,19.95
2022-08-23T05:00:44.653Z,19.23
2022-08-23T05:03:14.893Z,35.08
2022-08-23T05:05:42.712Z,17.33
2022-08-23T05:08:11.611Z,18.55
2022-08-23T05:10:38.888Z,24.85
2022-08-23T05:13:06.061Z,23.38
2022-08-23T05:15:33.337Z,17.38
2022-08-23T05:18:05.780Z,18.48
2022-08-23T05:20:35.727Z,20.98
2022-08-23T05:23:03.242Z,20.92
2022-08-23T05:25:52.531Z,21.98
2022-08-23T05:28:50.307Z,21.25
2022-08-23T05:31:24.006Z,22.30
2022-08-23T05:33:54.316Z,24.17
2022-08-23T05:36:31.689Z,23.42
2022-08-23T05:38:58.896Z,24.05
2022-08-23T05:41:37.812Z,27.15
2022-08-23T05:44:08.304Z,21.25
2022-08-23T05:46:36.794Z,24.85
2022-08-23T05:49:23.688Z,28.55
2022-08-23T05:51:52.059Z,23.15
2022-08-23T05:54:21.571Z,20.58
2022-08-23T05:57:02.712Z,24.52
2022-08-23T05:59:30.223Z,21.70
2022-08-23T06:01:57.724Z,23.08
2022-08-23T06:04:25.396Z,23.38
2022-08-23T06:06:53.843Z,23.52
2022-08-23T06:09:21.316Z,22.30
2022-08-23T06:11:48.935Z,20.38
2022-08-23T06:14:18.316Z,25.65
2022-08-23T06:16:51.610Z,26.60
2022-08-23T06:19:23.910Z,29.60
2022-08-23T06:22:09.790Z,22.00
2022-08-23T06:24:41.192Z,21.45
2022-08-23T06:27:13.669Z,25.25
2022-08-23T06:29:42.275Z,25.20
2022-08-23T06:32:28.197Z,22.13
2022-08-23T06:35:38.344Z,21.67
2022-08-23T06:38:09.330Z,23.83
2022-08-23T06:40:48.735Z,22.50
2022-08-23T06:43:25.716Z,20.38
2022-08-23T06:46:13.585Z,23.20
2022-08-23T06:48:43.234Z,21.70
2022-08-23T06:51:40.959Z,24.55
2022-08-23T06:54:20.282Z,26.95
2022-08-23T06:56:58.467Z,24.27
2022-08-23T06:59:30.077Z,22.35
2022-08-23T07:02:00.539Z,20.80
2022-08-23T07:04:46.394Z,25.02
2022-08-23T07:07:41.193Z,24.77
2022-08-23T07:10:13.860Z,19.60
2022-08-23T07:12:42.777Z,23.90
2022-08-23T07:15:13.969Z,21.92
2022-08-23T07:17:46.378Z,19.75
2022-08-23T07:20:14.109Z,23.63
2022-08-23T07:22:44.585Z,23.17
2022-08-23T07:25:12.521Z,30.00
2022-08-23T07:27:40.796Z,24.15
2022-08-23T07:30:09.742Z,22.63
2022-08-23T07:32:40.540Z,26.40
2022-08-23T07:35:40.181Z,29.95
2022-08-23T07:38:08.168Z,23.52
2022-08-23T07:40:38.743Z,28.27
2022-08-23T07:43:06.984Z,26.65
2022-08-23T07:45:36.574Z,28.15
2022-08-23T07:48:05.216Z,30.20
2022-08-23T07:50:40.793Z,29.70
2022-08-23T07:53:37.310Z,31.85
2022-08-23T07:56:11.083Z,32.30
2022-08-23T07:59:01.924Z,33.60
2022-08-23T08:01:41.498Z,31.85
2022-08-23T08:04:09.313Z,39.47
2022-08-23T08:06:46.146Z,34.97
2022-08-23T08:09:15.690Z,38.97
2022-08-23T08:11:47.958Z,38.78
2022-08-23T08:14:19.570Z,33.80
2022-08-23T08:16:56.338Z,29.35
2022-08-23T08:19:41.708Z,31.83
2022-08-23T08:22:27.850Z,32.13
2022-08-23T08:25:15.289Z,37.55
2022-08-23T08:27:43.750Z,35.67
2022-08-23T08:32:46.952Z,38.42
2022-08-23T08:35:16.016Z,33.75
2022-08-23T08:37:44.028Z,34.35
2022-08-23T08:40:11.498Z,28.90
2022-08-23T08:42:50.896Z,26.20
2022-08-23T08:45:27.732Z,29.95
2022-08-23T08:48:06.311Z,26.30
2022-08-23T08:50:49.798Z,26.02
2022-08-23T08:53:25.440Z,25.45
2022-08-23T08:56:25.184Z,23.48
2022-08-23T08:59:23.781Z,24.80
2022-08-23T09:01:51.693Z,27.27
2022-08-23T09:04:26.846Z,28.38
2022-08-23T09:07:11.268Z,25.02
2022-08-23T09:10:05.186Z,29.23
2022-08-23T09:12:59.594Z,26.90
2022-08-23T09:15:47.286Z,22.60
2022-08-23T09:18:17.028Z,21.13
2022-08-23T09:20:53.423Z,20.58
2022-08-23T09:23:27.551Z,24.38
2022-08-23T09:26:03.878Z,23.60
2022-08-23T09:28:38.960Z,24.33
2022-08-23T09:31:08.236Z,25.58
2022-08-23T09:33:42.858Z,21.98
2022-08-23T09:36:31.521Z,17.30
2022-08-23T09:39:07.497Z,18.23
2022-08-23T09:41:41.617Z,16.60
2022-08-23T09:44:17.023Z,20.73
2022-08-23T09:47:08.562Z,17.83
2022-08-23T09:49:54.472Z,21.85
2022-08-23T09:52:37.752Z,15.32
2022-08-23T09:55:42.251Z,17.17
2022-08-23T09:58:36.153Z,17.92
2022-08-23T10:01:39.281Z,19.27
2022-08-23T10:04:21.397Z,13.57
2022-08-23T10:06:49.286Z,12.93
2022-08-23T10:09:37.078Z,12.85
2022-08-23T10:12:07.506Z,13.95
2022-08-23T10:14:35.640Z,10.20
2022-08-23T10:17:15.388Z,12.00
2022-08-23T10:19:58.817Z,16.63
2022-08-23T10:22:28.673Z,14.10
2022-08-23T10:25:26.741Z,12.82
2022-08-23T10:28:22.186Z,11.02
2022-08-23T10:31:34.168Z,13.68
2022-08-23T10:34:33.321Z,12.88
2022-08-23T10:37:30.697Z,14.50
2022-08-23T10:40:17.376Z,10.65
2022-08-23T10:42:56.974Z,14.20
2022-08-23T10:45:31.233Z,15.05
2022-08-23T10:48:21.332Z,14.48
2022-08-23T10:50:55.781Z,11.15
2022-08-23T10:53:35.830Z,9.23
2022-08-23T10:56:06.937Z,16.90
2022-08-23T10:58:55.096Z,18.50
2022-08-23T11:01:41.095Z,14.63
2022-08-23T11:04:23.890Z,13.02
2022-08-23T11:07:26.878Z,12.93
2022-08-23T11:10:17.999Z,12.27
2022-08-23T11:12:54.560Z,12.95
2022-08-23T11:15:45.101Z,10.70
2022-08-23T11:18:41.417Z,12.02
2022-08-23T11:21:18.336Z,11.65
2022-08-23T11:23:59.111Z,11.65
2022-08-23T11:26:36.390Z,13.05
2022-08-23T11:29:06.722Z,14.73
2022-08-23T11:31:58.762Z,13.45
2022-08-23T11:35:10.400Z,12.65
2022-08-23T11:37:53.374Z,15.27
2022-08-23T11:40:49.650Z,16.27
2022-08-23T11:43:32.789Z,11.00
2022-08-23T11:46:26.861Z,12.60
2022-08-23T11:49:13.724Z,14.77
2022-08-23T11:51:50.372Z,12.85
2022-08-23T11:54:42.040Z,13.63
2022-08-23T11:57:19.828Z,9.98
2022-08-23T11:59:58.915Z,14.55
2022-08-23T12:02:38.094Z,9.70
2022-08-23T12:05:43.076Z,8.32
2022-08-23T12:08:13.969Z,8.70
2022-08-23T12:10:41.150Z,8.82
2022-08-23T12:13:20.642Z,8.80
2022-08-23T12:16:26.156Z,10.55
2022-08-23T12:19:01.429Z,10.20
2022-08-23T12:21:34.490Z,8.10
2022-08-23T12:24:16.363Z,10.45
2022-08-23T12:27:13.135Z,10.40
2022-08-23T12:29:49.510Z,12.20
2022-08-23T12:32:21.978Z,15.95
2022-08-23T12:35:10.229Z,7.75
2022-08-23T12:37:57.913Z,10.48
2022-08-23T12:40:35.986Z,11.80
2022-08-23T12:43:11.822Z,10.38
2022-08-23T12:45:49.729Z,12.70
2022-08-23T12:48:21.921Z,11.82
2022-08-23T12:50:59.396Z,13.60
2022-08-23T12:53:33.381Z,12.75
2022-08-23T12:56:08.244Z,10.02
2022-08-23T12:58:38.964Z,9.13
2022-08-23T13:01:18.136Z,10.43
2022-08-23T13:03:50.858Z,10.70
2022-08-23T13:06:30.135Z,8.57
2022-08-23T13:09:02.667Z,11.65
2022-08-23T13:11:33.468Z,9.07
2022-08-23T13:14:01.370Z,8.43
2022-08-23T13:16:38.204Z,10.60
2022-08-23T13:19:23.627Z,9.25
2022-08-23T13:22:37.732Z,9.30
2022-08-23T13:25:27.432Z,10.80
2022-08-23T13:27:56.256Z,12.15
2022-08-23T13:30:29.845Z,9.27
2022-08-23T13:33:07.645Z,8.13
2022-08-23T13:35:35.282Z,10.82
2022-08-23T13:38:08.727Z,8.25
2022-08-23T13:40:59.880Z,7.35
2022-08-23T13:43:53.495Z,10.10
2022-08-23T13:46:26.930Z,10.10
2022-08-23T13:49:05.439Z,11.50
2022-08-23T13:51:45.774Z,9.30
2022-08-23T13:54:15.794Z,9.82
2022-08-23T13:56:48.305Z,6.88
2022-08-23T13:59:23.966Z,9.93
2022-08-23T14:02:01.603Z,9.85
2022-08-23T14:04:28.947Z,10.80
2022-08-23T14:06:56.197Z,15.85
2022-08-23T14:09:23.397Z,8.48
2022-08-23T14:11:54.541Z,10.20
2022-08-23T14:14:22.112Z,10.73
2022-08-23T14:16:49.790Z,8.73
2022-08-23T14:19:54.688Z,9.85
2022-08-23T14:22:05.107Z,11.60
2022-08-23T14:24:32.408Z,8.30
2022-08-23T14:27:00.768Z,13.02
2022-08-23T14:29:28.550Z,9.27
2022-08-23T14:34:25.490Z,9.07
2022-08-23T14:39:41.002Z,10.35
2022-08-23T14:42:09.148Z,12.27
2022-08-23T14:44:36.599Z,10.45
2022-08-23T14:47:05.803Z,10.65
2022-08-23T14:49:33.994Z,15.25
2022-08-23T14:52:01.801Z,9.98
2022-08-23T14:56:57.224Z,9.40
2022-08-23T14:59:24.624Z,9.23
2022-08-23T15:01:53.800Z,8.18
2022-08-23T15:04:24.488Z,13.45
2022-08-23T15:07:16.637Z,8.57
2022-08-23T15:09:41.429Z,9.25
2022-08-23T15:14:57.040Z,9.57
2022-08-23T15:17:30.287Z,8.40
2022-08-23T15:19:59.548Z,7.93
2022-08-23T15:22:26.842Z,11.32
2022-08-23T15:24:54.164Z,9.02
2022-08-23T15:27:22.419Z,10.45
2022-08-23T15:29:49.589Z,8.73
2022-08-23T15:32:22.228Z,8.57
2022-08-23T15:34:50.552Z,9.85
2022-08-23T15:42:16.579Z,8.07
2022-08-23T15:44:47.959Z,9.38
2022-08-23T15:47:24.445Z,10.25
2022-08-23T15:49:52.329Z,7.85
2022-08-23T15:52:20.196Z,10.07
2022-08-23T15:57:22.215Z,10.55
2022-08-23T15:59:49.748Z,16.08
2022-08-23T16:02:17.262Z,11.00
2022-08-23T16:04:44.817Z,12.20
2022-08-23T16:07:15.346Z,10.20
2022-08-23T16:09:43.730Z,7.97
2022-08-23T16:12:11.057Z,11.23
2022-08-23T16:14:38.685Z,10.13
2022-08-23T16:17:07.703Z,10.75
2022-08-23T16:19:35.038Z,9.18
2022-08-23T16:22:02.840Z,10.90
2022-08-23T16:24:30.104Z,14.55
2022-08-23T16:26:57.845Z,7.40
2022-08-23T16:29:25.345Z,11.13
2022-08-23T16:31:52.766Z,9.38
2022-08-23T16:34:20.336Z,7.53
2022-08-23T16:36:53.827Z,12.95
2022-08-23T16:39:22.979Z,12.40
2022-08-23T16:41:50.746Z,9.38
2022-08-23T16:46:45.272Z,8.18
2022-08-23T16:49:16.992Z,8.25
2022-08-23T16:51:44.951Z,7.90
2022-08-23T16:54:12.612Z,14.02
2022-08-23T16:56:41.047Z,12.35
2022-08-23T16:59:10.016Z,9.30
2022-08-23T17:01:52.688Z,10.52
2022-08-23T17:04:21.731Z,9.13
2022-08-23T17:06:48.979Z,10.23
2022-08-23T17:09:16.819Z,7.55
2022-08-23T17:11:44.507Z,7.00
2022-08-23T17:14:12.823Z,8.10
2022-08-23T17:16:41.710Z,12.60
2022-08-23T17:19:09.643Z,6.72
2022-08-23T17:24:05.519Z,10.80
2022-08-23T17:26:33.306Z,10.57
2022-08-23T17:29:01.822Z,9.40
2022-08-23T17:31:29.257Z,12.02
2022-08-23T17:34:02.569Z,11.88
2022-08-23T17:36:42.522Z,9.52
2022-08-23T17:39:17.488Z,14.00
2022-08-23T17:41:45.684Z,9.52
2022-08-23T17:44:13.601Z,8.50
2022-08-23T17:49:10.463Z,9.27
2022-08-23T17:51:38.526Z,10.82
2022-08-23T17:54:06.245Z,11.43
2022-08-23T17:56:33.647Z,8.70
2022-08-23T17:59:00.965Z,9.77
2022-08-23T18:01:31.274Z,12.00
2022-08-23T18:03:58.665Z,9.88
2022-08-23T18:06:27.476Z,11.82
2022-08-23T18:08:55.542Z,9.77
2022-08-23T18:11:23.024Z,9.07
2022-08-23T18:13:50.360Z,11.20
2022-08-23T18:16:17.799Z,12.93
2022-08-23T18:18:45.015Z,11.77
2022-08-23T18:21:13.084Z,9.60
2022-08-23T18:23:44.842Z,14.68
2022-08-23T18:26:33.557Z,11.55
2022-08-23T18:29:01.370Z,10.25
2022-08-23T18:31:29.264Z,10.27
2022-08-23T18:34:00.397Z,9.95
2022-08-23T18:36:29.415Z,13.13
2022-08-23T18:38:57.780Z,11.95
2022-08-23T18:41:25.540Z,11.93
2022-08-23T18:43:53.255Z,8.15
2022-08-23T18:46:20.823Z,10.88
2022-08-23T18:48:53.813Z,8.20
2022-08-23T18:51:22.255Z,11.65
2022-08-23T18:53:50.214Z,11.80
2022-08-23T18:56:17.984Z,10.70
2022-08-23T19:01:30.199Z,14.85
2022-08-23T19:04:00.300Z,11.20
2022-08-23T19:06:28.443Z,9.82
2022-08-23T19:08:56.905Z,11.60
2022-08-23T19:11:25.371Z,11.00
2022-08-23T19:13:53.459Z,9.63
2022-08-23T19:16:21.970Z,12.10
2022-08-23T19:18:50.797Z,12.35
2022-08-23T19:21:21.527Z,12.25
2022-08-23T19:23:51.935Z,11.43
2022-08-23T19:26:23.655Z,13.18
2022-08-23T19:28:52.383Z,10.40
2022-08-23T19:31:19.782Z,10.75
2022-08-23T19:33:47.340Z,10.45
2022-08-23T19:36:35.658Z,14.70
2022-08-23T19:39:02.598Z,10.13
2022-08-23T19:41:30.397Z,16.27
2022-08-23T19:46:26.060Z,11.00
2022-08-23T19:51:21.928Z,11.48
2022-08-23T19:54:10.840Z,16.38
2022-08-23T19:56:46.856Z,13.93
2022-08-23T19:59:28.251Z,11.55
2022-08-23T20:01:58.069Z,10.43
2022-08-23T20:04:28.317Z,12.05
2022-08-23T20:06:58.000Z,10.98
2022-08-23T20:09:28.749Z,13.35
2022-08-23T20:11:56.845Z,11.30
2022-08-23T20:14:28.610Z,12.10
2022-08-23T22:09:58.890Z,12.45
2022-08-23T22:12:26.868Z,11.00
2022-08-23T22:14:56.754Z,12.63
2022-08-23T22:22:14.540Z,13.65
2022-08-23T22:25:08.827Z,11.70
2022-08-23T22:28:01.364Z,11.40
2022-08-23T22:30:28.821Z,13.65
2022-08-23T22:32:56.134Z,11.85
2022-08-23T22:35:28.052Z,16.95
2022-08-23T22:50:45.509Z,17.33
2022-08-23T23:15:15.117Z,14.35
2022-08-23T23:17:58.048Z,14.90
2022-08-23T23:20:40.308Z,17.05
2022-08-23T23:39:17.139Z,14.43
2022-08-23T23:41:45.845Z,14.15
2022-08-23T23:44:13.279Z,18.67
2022-08-23T23:46:42.013Z,19.48
2022-08-23T23:49:10.727Z,20.52
2022-08-23T23:51:38.279Z,22.30
2022-08-23T23:54:07.424Z,27.73
2022-08-23T23:56:34.931Z,21.63
2022-08-23T23:59:02.132Z,19.35
